Time;durP1;ratioP1;P1;durP2;ratioP2;P2;SDS_P1;SDS_P2;PMS_P1;PMS_P2;Temp;Humidity;BMP_temperature;BMP_pressure;BME280_temperature;BME280_humidity;BME280_pressure;Samples;Min_cycle;Max_cycle;Signal;HPM_P1;HPM_P2
2023/02/06 00:01:48;;;;;;;17.55;11.10;;;6.20;70.50;;;1.18;100.00;97228.03;4991707;28;20088;-54
2023/02/06 00:04:15;;;;;;;19.33;11.55;;;6.20;70.50;;;1.16;100.00;97227.38;5010775;28;20168;-49
2023/02/06 00:06:52;;;;;;;22.13;12.48;;;6.20;70.50;;;1.15;100.00;97226.53;5012203;28;20025;-53
2023/02/06 00:09:21;;;;;;;21.52;12.15;;;6.20;70.50;;;1.12;100.00;97219.00;5009580;28;20017;-50
2023/02/06 00:11:50;;;;;;;20.25;12.25;;;6.10;70.40;;;1.17;100.00;97221.13;4994548;28;20029;-53
2023/02/06 00:14:16;;;;;;;19.40;11.63;;;6.10;70.40;;;1.20;100.00;97215.56;5007482;28;20030;-51
2023/02/06 00:16:42;;;;;;;21.45;12.07;;;6.10;70.40;;;1.20;100.00;97217.38;5010761;28;20115;-51
2023/02/06 00:19:08;;;;;;;19.30;11.75;;;6.10;70.40;;;1.16;100.00;97222.13;5010334;28;20079;-51
2023/02/06 00:21:43;;;;;;;19.00;10.80;;;6.10;70.30;;;1.09;100.00;97226.38;4977999;28;20017;-49
2023/02/06 00:24:09;;;;;;;22.67;11.52;;;6.10;70.30;;;1.05;100.00;97225.91;4993683;28;20021;-49
2023/02/06 00:26:37;;;;;;;19.73;11.82;;;6.10;70.30;;;1.04;100.00;97228.69;5010610;28;20503;-51
2023/02/06 00:29:09;;;;;;;18.95;11.57;;;6.00;70.30;;;1.10;100.00;97235.91;5011842;28;20040;-54
2023/02/06 00:31:35;;;;;;;20.38;11.45;;;6.00;70.30;;;1.05;100.00;97235.56;5011016;28;20025;-51
2023/02/06 00:34:02;;;;;;;21.85;12.07;;;6.00;70.30;;;0.95;100.00;97240.19;4993829;28;20087;-51
2023/02/06 00:36:32;;;;;;;20.02;12.32;;;6.00;70.30;;;0.90;100.00;97232.78;5010279;28;20024;-52
2023/02/06 00:38:59;;;;;;;22.35;11.95;;;6.00;70.40;;;0.95;100.00;97229.69;4992894;28;20060;-52
2023/02/06 00:41:25;;;;;;;20.00;11.85;;;6.00;70.40;;;0.97;100.00;97230.31;5011442;28;20020;-54
2023/02/06 00:43:56;;;;;;;20.85;12.55;;;6.00;70.50;;;0.96;100.00;97229.50;5008246;28;20391;-51
2023/02/06 00:46:28;;;;;;;22.25;12.98;;;6.00;70.50;;;0.99;100.00;97226.56;5011489;28;20017;-55
2023/02/06 00:48:57;;;;;;;17.60;11.73;;;6.00;70.50;;;0.99;100.00;97218.69;5009992;28;20128;-57
2023/02/06 00:51:23;;;;;;;19.77;12.13;;;6.00;70.50;;;1.04;100.00;97223.44;4992817;28;20115;-51
2023/02/06 00:53:49;;;;;;;21.58;11.77;;;6.00;70.50;;;1.03;100.00;97224.41;5006359;28;20113;-55
2023/02/06 00:56:24;;;;;;;19.50;12.45;;;6.00;70.60;;;0.94;100.00;97218.38;4985154;28;20025;-54
2023/02/06 00:58:50;;;;;;;18.58;10.98;;;6.00;70.50;;;0.94;100.00;97226.25;4989710;28;20484;-51
2023/02/06 01:01:19;;;;;;;19.05;12.25;;;6.00;70.50;;;0.96;100.00;97226.06;4986567;28;20113;-50
2023/02/06 01:03:48;;;;;;;20.70;12.52;;;6.00;70.60;;;1.01;100.00;97227.22;5008971;28;20372;-49
2023/02/06 01:06:18;;;;;;;22.65;12.45;;;6.00;70.60;;;1.00;100.00;97228.19;4988092;28;20026;-54
2023/02/06 01:08:45;;;;;;;22.55;12.55;;;6.00;70.60;;;1.04;100.00;97226.06;5003956;28;20080;-57
2023/02/06 01:11:23;;;;;;;22.23;12.38;;;6.00;70.60;;;1.02;100.00;97236.72;4993608;28;20468;-55
2023/02/06 01:13:50;;;;;;;21.15;13.00;;;6.00;70.60;;;1.08;100.00;97238.69;5009484;28;20029;-49
2023/02/06 01:16:21;;;;;;;23.33;12.73;;;6.00;70.60;;;0.99;100.00;97236.22;4993558;28;20032;-53
2023/02/06 01:18:50;;;;;;;18.27;11.85;;;6.10;70.50;;;1.02;100.00;97241.16;5009689;28;20075;-54
2023/02/06 01:21:23;;;;;;;22.20;13.02;;;6.10;70.50;;;1.01;100.00;97248.22;4991572;28;20128;-49
2023/02/06 01:23:52;;;;;;;19.90;12.00;;;6.10;70.60;;;1.05;100.00;97244.28;5009740;28;20029;-50
2023/02/06 01:26:23;;;;;;;21.02;13.10;;;6.10;70.50;;;1.02;100.00;97244.59;5004620;28;20025;-51
2023/02/06 01:28:56;;;;;;;20.13;12.48;;;6.10;70.50;;;0.90;100.00;97244.09;4976939;28;20025;-52
2023/02/06 01:31:31;;;;;;;19.88;12.52;;;6.10;70.50;;;0.97;100.00;97236.38;5008527;28;20021;-51
2023/02/06 01:34:13;;;;;;;19.45;12.35;;;6.10;70.60;;;0.92;100.00;97236.06;5008369;28;20033;-53
2023/02/06 01:36:45;;;;;;;22.27;13.48;;;6.10;70.50;;;0.89;100.00;97229.34;5009018;28;20032;-54
2023/02/06 01:39:13;;;;;;;15.40;10.32;;;6.00;70.40;;;0.93;100.00;97230.66;5009133;28;20091;-52
2023/02/06 01:41:39;;;;;;;20.77;12.57;;;6.00;70.40;;;0.90;100.00;97236.22;5009304;28;20079;-50
2023/02/06 01:44:23;;;;;;;22.67;13.13;;;6.00;70.50;;;0.98;100.00;97224.91;4991552;28;20028;-51
2023/02/06 01:46:53;;;;;;;19.95;12.45;;;6.00;70.50;;;1.04;100.00;97226.88;5009738;28;20021;-49
2023/02/06 01:49:47;;;;;;;22.15;12.60;;;6.00;70.50;;;1.07;100.00;97231.81;5006303;28;20025;-54
2023/02/06 01:52:30;;;;;;;21.48;13.07;;;6.10;70.60;;;1.02;100.00;97228.84;4992165;28;20021;-52
2023/02/06 01:55:03;;;;;;;22.48;13.20;;;6.00;70.50;;;1.07;100.00;97223.94;5008714;28;20048;-54
2023/02/06 01:57:35;;;;;;;21.73;13.25;;;6.10;70.50;;;1.07;100.00;97220.50;5009231;28;20028;-58
2023/02/06 02:00:10;;;;;;;22.80;13.50;;;6.10;70.50;;;1.09;100.00;97229.81;4992534;28;20391;-51
2023/02/06 02:02:42;;;;;;;27.05;15.80;;;6.10;70.50;;;1.06;100.00;97224.91;5007372;28;20029;-55
2023/02/06 02:05:12;;;;;;;22.83;13.68;;;6.10;70.50;;;0.99;100.00;97216.06;4992435;28;20560;-54
2023/02/06 02:08:09;;;;;;;24.30;14.55;;;6.10;70.40;;;1.06;100.00;97216.22;5002940;28;20476;-49
2023/02/06 02:10:36;;;;;;;27.35;14.63;;;6.10;70.30;;;1.05;100.00;97220.66;4983339;28;20025;-50
2023/02/06 02:13:02;;;;;;;26.15;14.93;;;6.10;70.40;;;1.06;100.00;97211.78;4990992;28;20032;-57
2023/02/06 02:16:04;;;;;;;23.98;13.65;;;6.10;70.40;;;1.01;100.00;97218.53;5009972;28;20029;-49
2023/02/06 02:19:23;;;;;;;26.52;15.98;;;6.10;70.30;;;0.85;100.00;97219.34;4993079;28;20021;-51
2023/02/06 02:22:35;;;;;;;26.23;15.30;;;6.10;70.30;;;0.88;100.00;97211.97;5001864;28;20023;-51
2023/02/06 02:25:24;;;;;;;25.63;14.93;;;6.00;70.20;;;0.81;100.00;97207.53;5009479;28;20074;-61
2023/02/06 02:28:15;;;;;;;27.73;15.32;;;6.00;70.40;;;0.77;100.00;97208.84;5017494;23;20064;-56
2023/02/06 02:31:38;;;;;;;25.08;15.52;;;6.00;70.40;;;0.79;100.00;97209.50;4990238;28;20034;-53
2023/02/06 02:35:23;;;;;;;24.20;14.68;;;6.00;70.40;;;0.81;100.00;97197.84;4973010;28;20040;-55
2023/02/06 02:38:13;;;;;;;;;;;5.90;70.40;;;0.75;100.00;97198.50;4986340;28;20025;-54
2023/02/06 02:40:54;;;;;;;26.00;13.95;;;5.90;70.40;;;0.69;100.00;97199.19;4966233;28;20288;-53
2023/02/06 02:43:35;;;;;;;21.77;13.38;;;5.80;70.40;;;0.73;100.00;97197.84;4985353;28;20041;-53
2023/02/06 02:46:42;;;;;;;22.17;14.20;;;5.80;70.30;;;0.64;100.00;97199.66;4978661;28;20033;-54
2023/02/06 02:49:37;;;;;;;21.58;12.70;;;5.80;70.40;;;0.63;100.00;97203.25;4966466;28;20109;-56
2023/02/06 02:52:03;;;;;;;22.17;12.23;;;5.80;70.30;;;0.63;100.00;97199.81;4982129;28;20037;-54
2023/02/06 02:54:32;;;;;;;18.58;11.43;;;5.70;70.30;;;0.59;100.00;97199.31;4996675;28;20030;-57
2023/02/06 02:57:13;;;;;;;19.27;12.57;;;5.80;70.30;;;0.66;100.00;97194.25;5003948;28;20048;-55
2023/02/06 02:59:51;;;;;;;20.35;11.93;;;5.80;71.20;;;0.74;100.00;97198.66;4975261;28;20034;-54
2023/02/06 03:02:39;;;;;;;20.20;12.20;;;5.70;70.30;;;0.68;100.00;97192.28;4987526;28;20109;-53
2023/02/06 03:05:17;;;;;;;17.85;10.70;;;5.80;70.30;;;0.69;100.00;97193.94;4966197;28;20711;-53
2023/02/06 03:08:53;;;;;;;18.48;11.27;;;5.70;70.30;;;0.62;100.00;97191.09;4979447;28;20053;-55
2023/02/06 03:11:30;;;;;;;15.48;10.88;;;5.80;70.20;;;0.57;100.00;97198.66;4989975;28;20053;-57
2023/02/06 03:15:01;;;;;;;18.75;11.35;;;5.70;70.20;;;0.62;100.00;97196.34;4982681;28;20025;-53
2023/02/06 03:18:34;;;;;;;17.58;10.98;;;5.80;70.10;;;0.51;100.00;97207.19;4947166;28;20038;-57
2023/02/06 03:21:18;;;;;;;16.10;9.93;;;5.70;70.10;;;0.55;100.00;97200.63;4979407;28;20037;-56
2023/02/06 03:24:07;;;;;;;18.25;11.60;;;5.70;70.10;;;0.59;100.00;97207.16;4966391;28;20029;-55
2023/02/06 03:26:44;;;;;;;17.52;11.00;;;5.70;70.00;;;0.65;100.00;97213.56;4980677;28;20103;-54
2023/02/06 03:29:19;;;;;;;18.50;12.15;;;5.70;70.10;;;0.67;100.00;97211.63;4982984;28;20025;-56
2023/02/06 03:32:02;;;;;;;18.98;12.63;;;5.70;70.10;;;0.68;100.00;97214.06;4963207;28;20032;-54
2023/02/06 03:35:15;;;;;;;19.08;12.32;;;5.70;70.00;;;0.63;100.00;97205.88;4995096;28;20022;-55
2023/02/06 03:37:42;;;;;;;15.10;9.77;;;5.70;69.90;;;0.62;100.00;97204.22;4990816;28;20029;-58
2023/02/06 03:40:11;;;;;;;20.00;12.50;;;5.70;70.00;;;0.59;100.00;97209.78;5008096;28;20371;-57
2023/02/06 03:42:55;;;;;;;22.35;12.77;;;5.70;70.00;;;0.64;100.00;97209.31;4991227;28;20049;-54
2023/02/06 03:45:46;;;;;;;19.60;12.30;;;5.70;69.90;;;0.59;100.00;97201.09;4990743;28;20037;-57
2023/02/06 03:48:34;;;;;;;22.05;13.38;;;5.70;69.80;;;0.49;100.00;97210.94;4987612;28;20022;-54
2023/02/06 03:51:12;;;;;;;21.20;12.70;;;5.70;69.90;;;0.54;100.00;97201.59;4981297;28;20037;-54
2023/02/06 03:53:43;;;;;;;25.02;14.70;;;5.70;69.90;;;0.55;100.00;97198.00;4993975;28;20462;-53
2023/02/06 03:56:28;;;;;;;25.90;14.45;;;5.70;69.90;;;0.36;100.00;97203.53;4990980;28;20070;-56
2023/02/06 03:58:57;;;;;;;24.50;13.85;;;5.70;70.60;;;0.39;100.00;97195.34;5002792;28;20080;-58
2023/02/06 04:01:23;;;;;;;24.95;14.88;;;5.60;69.70;;;0.45;100.00;97216.50;4982835;28;20523;-53
2023/02/06 04:03:54;;;;;;;25.05;15.27;;;5.60;69.70;;;0.48;100.00;97225.84;4993936;28;20033;-55
2023/02/06 04:06:23;;;;;;;24.13;14.93;;;5.60;69.70;;;0.31;100.00;97232.03;5007925;28;20043;-56
2023/02/06 04:08:52;;;;;;;24.13;14.85;;;5.60;69.70;;;0.29;100.00;97226.97;4995170;28;20048;-57
2023/02/06 04:11:18;;;;;;;23.50;15.02;;;5.60;69.70;;;0.33;100.00;97228.28;4990063;28;20072;-55
2023/02/06 04:13:44;;;;;;;25.55;15.23;;;5.50;69.70;;;0.36;100.00;97220.09;5000660;28;20034;-56
2023/02/06 04:16:15;;;;;;;25.80;15.23;;;5.50;69.80;;;0.34;100.00;97219.41;4984304;28;20022;-53
2023/02/06 04:18:41;;;;;;;26.00;16.15;;;5.50;69.80;;;0.35;100.00;97215.00;5003313;28;20074;-55
2023/02/06 04:21:10;;;;;;;24.08;14.70;;;5.50;69.70;;;0.32;100.00;97221.41;4986535;28;20034;-54
2023/02/06 04:23:36;;;;;;;24.63;14.23;;;5.50;69.80;;;0.32;100.00;97225.81;4986123;28;20033;-57
2023/02/06 04:26:02;;;;;;;22.42;14.48;;;5.50;69.80;;;0.19;100.00;97231.53;4981765;28;20025;-53
2023/02/06 04:28:28;;;;;;;25.75;14.45;;;5.50;69.80;;;0.18;100.00;97232.47;4978378;28;20124;-54
2023/02/06 04:30:53;;;;;;;24.23;14.98;;;5.40;69.70;;;0.21;100.00;97221.69;4977814;28;20131;-58
2023/02/06 04:33:25;;;;;;;24.25;13.95;;;5.50;69.80;;;0.14;100.00;97228.53;4987705;28;20384;-53
2023/02/06 04:35:51;;;;;;;26.73;14.95;;;5.40;69.70;;;0.14;100.00;97226.75;4985714;28;20484;-55
2023/02/06 04:38:20;;;;;;;25.30;14.48;;;5.40;69.70;;;0.21;100.00;97225.13;5003167;28;20110;-54
2023/02/06 04:40:46;;;;;;;25.27;15.45;;;5.40;69.80;;;0.22;100.00;97218.91;4991575;28;20026;-57
2023/02/06 04:43:12;;;;;;;23.83;14.23;;;5.40;69.80;;;0.22;100.00;97223.34;5006707;28;20029;-56
2023/02/06 04:45:38;;;;;;;22.92;13.88;;;5.40;69.80;;;0.27;100.00;97214.97;4995084;28;20472;-53
2023/02/06 04:48:04;;;;;;;27.20;14.85;;;5.40;69.80;;;0.32;100.00;97212.72;4987523;28;20108;-54
2023/02/06 04:50:33;;;;;;;24.15;14.75;;;5.40;69.90;;;0.35;100.00;97213.22;4989475;28;20026;-55
2023/02/06 04:52:59;;;;;;;26.38;15.30;;;5.40;69.80;;;0.31;100.00;97214.50;4984277;28;20029;-53
2023/02/06 04:55:31;;;;;;;26.20;14.88;;;5.40;69.80;;;0.28;100.00;97208.75;4973987;28;20027;-53
2023/02/06 04:57:57;;;;;;;23.00;14.48;;;5.40;69.80;;;0.29;100.00;97205.97;4988451;28;20036;-54
2023/02/06 05:00:23;;;;;;;26.23;14.90;;;5.40;69.80;;;0.23;100.00;97198.75;4989384;28;20392;-53
2023/02/06 05:02:49;;;;;;;23.42;14.55;;;5.40;69.70;;;0.17;100.00;97197.59;5002886;28;20029;-54
2023/02/06 05:05:18;;;;;;;23.08;14.38;;;5.40;69.70;;;0.28;100.00;97196.47;4986813;28;20021;-53
2023/02/06 05:07:47;;;;;;;26.55;14.60;;;5.40;69.70;;;0.30;100.00;97198.94;4985764;28;20017;-58
2023/02/06 05:10:16;;;;;;;27.27;15.07;;;5.40;69.80;;;0.18;100.00;97201.03;4995809;28;20104;-58
2023/02/06 05:12:46;;;;;;;26.90;14.85;;;5.40;69.70;;;0.21;100.00;97198.91;5011831;28;20032;-57
2023/02/06 05:15:17;;;;;;;23.67;14.18;;;5.40;69.70;;;0.17;100.00;97200.22;4982818;28;20022;-57
2023/02/06 05:17:49;;;;;;;25.63;14.45;;;5.40;69.70;;;0.05;100.00;97198.88;4989861;28;20033;-52
2023/02/06 05:20:25;;;;;;;24.35;13.77;;;5.40;69.70;;;0.11;100.00;97195.59;4987636;28;20100;-53
2023/02/06 05:22:50;;;;;;;21.52;13.05;;;5.40;69.70;;;0.18;100.00;97201.84;5004084;28;20067;-55
2023/02/06 05:25:26;;;;;;;24.05;14.48;;;5.30;69.70;;;0.11;100.00;97200.84;4988773;28;20407;-53
2023/02/06 05:27:56;;;;;;;22.80;14.07;;;5.30;69.70;;;0.15;100.00;97201.34;4991654;28;20053;-53
2023/02/06 05:30:26;;;;;;;23.52;14.02;;;5.30;69.70;;;0.11;100.00;97200.03;4971848;28;20026;-56
2023/02/06 05:32:52;;;;;;;20.98;13.10;;;5.30;69.70;;;0.20;100.00;97199.06;4978725;28;20101;-53
2023/02/06 05:35:24;;;;;;;23.60;13.82;;;5.30;69.70;;;0.23;100.00;97201.38;4998537;28;20028;-54
2023/02/06 05:37:50;;;;;;;21.98;13.15;;;5.30;69.70;;;0.18;100.00;97196.59;4975876;28;20032;-55
2023/02/06 05:40:25;;;;;;;21.55;12.75;;;5.30;69.70;;;0.15;100.00;97199.53;5000617;28;20105;-58
2023/02/06 05:42:51;;;;;;;20.60;12.77;;;5.30;69.60;;;0.19;100.00;97195.66;4982725;28;20048;-56
2023/02/06 05:45:17;;;;;;;20.70;12.57;;;5.30;69.60;;;0.17;100.00;97194.97;4986442;28;20029;-53
2023/02/06 05:47:43;;;;;;;20.77;12.25;;;5.30;69.60;;;-0.05;100.00;97187.69;5004453;28;20029;-53
2023/02/06 05:50:09;;;;;;;23.45;13.15;;;5.30;69.60;;;-0.04;100.00;97200.63;4986989;28;20021;-55
2023/02/06 05:52:34;;;;;;;23.20;13.75;;;5.30;69.50;;;0.04;100.00;97194.63;4983112;28;20030;-54
2023/02/06 05:55:00;;;;;;;20.98;12.90;;;5.20;69.50;;;-0.04;100.00;97203.25;4987501;28;20030;-54
2023/02/06 05:57:26;;;;;;;21.40;12.82;;;5.30;69.50;;;0.05;100.00;97204.09;5003109;28;20048;-56
2023/02/06 05:59:55;;;;;;;22.63;12.65;;;5.20;69.50;;;0.10;100.00;97201.84;4965099;28;20022;-53
2023/02/06 06:02:24;;;;;;;21.63;13.15;;;5.30;69.60;;;-0.04;100.00;97199.81;4984124;28;20391;-54
2023/02/06 06:04:50;;;;;;;23.92;14.20;;;5.30;69.60;;;0.02;100.00;97199.19;4981262;28;20485;-58
2023/02/06 06:07:16;;;;;;;26.00;13.85;;;5.20;69.50;;;0.05;100.00;97201.47;4996630;28;20036;-58
2023/02/06 06:09:45;;;;;;;23.65;14.18;;;5.20;69.60;;;-0.02;100.00;97200.47;5004524;28;20022;-58
2023/02/06 06:12:11;;;;;;;24.70;12.82;;;5.20;69.50;;;-0.03;100.00;97202.28;5002759;28;20029;-57
2023/02/06 06:14:37;;;;;;;26.27;14.27;;;5.20;69.50;;;-0.07;100.00;97194.88;4986577;28;20033;-56
2023/02/06 06:17:07;;;;;;;28.20;15.05;;;5.20;69.60;;;0.03;100.00;97198.19;4979181;28;20014;-55
2023/02/06 06:19:35;;;;;;;25.40;14.15;;;5.20;69.50;;;-0.11;100.00;97194.38;4980335;28;20053;-53
2023/02/06 06:22:04;;;;;;;27.80;14.90;;;5.20;69.60;;;-0.13;100.00;97195.53;4989087;28;20021;-52
2023/02/06 06:24:31;;;;;;;27.98;13.50;;;5.20;69.60;;;-0.09;100.00;97197.69;4971081;28;20029;-53
2023/02/06 06:27:00;;;;;;;26.15;14.70;;;5.20;69.60;;;-0.05;100.00;97190.31;4999420;28;20041;-54
2023/02/06 06:29:29;;;;;;;28.08;14.55;;;5.10;69.60;;;0.01;100.00;97183.63;4988480;28;20120;-57
2023/02/06 06:31:55;;;;;;;26.02;14.55;;;5.20;69.70;;;-0.04;100.00;97190.16;4981136;28;20044;-55
2023/02/06 06:34:21;;;;;;;25.23;14.07;;;5.20;69.70;;;0.00;100.00;97177.56;4989848;28;20049;-57
2023/02/06 06:37:12;;;;;;;29.95;15.10;;;5.10;69.70;;;-0.03;100.00;97183.13;4968787;28;20030;-57
2023/02/06 06:39:37;;;;;;;28.52;14.77;;;5.20;69.70;;;-0.06;100.00;97179.03;4992648;28;20439;-54
2023/02/06 06:42:07;;;;;;;31.00;15.18;;;5.20;69.70;;;-0.05;100.00;97185.09;4973852;28;20026;-52
2023/02/06 06:44:35;;;;;;;26.38;14.88;;;5.20;69.80;;;-0.04;100.00;97184.09;4976274;28;20029;-56
2023/02/06 06:47:02;;;;;;;28.50;15.02;;;5.10;69.70;;;-0.12;100.00;97192.75;4979780;28;20033;-52
2023/02/06 06:49:28;;;;;;;29.45;14.95;;;5.10;69.70;;;-0.10;100.00;97192.59;4992540;28;20586;-54
2023/02/06 06:51:54;;;;;;;31.10;16.15;;;5.20;69.80;;;-0.03;100.00;97188.38;4974398;28;20014;-56
2023/02/06 06:54:25;;;;;;;32.35;17.05;;;5.10;69.80;;;0.02;100.00;97187.88;4983329;28;20030;-54
2023/02/06 06:56:51;;;;;;;28.60;15.38;;;5.20;69.90;;;0.02;100.00;97187.88;4982763;28;20054;-52
2023/02/06 06:59:17;;;;;;;28.63;15.80;;;5.20;69.90;;;0.01;100.00;97189.69;5006240;28;20496;-54
2023/02/06 07:01:43;;;;;;;27.35;14.68;;;5.20;69.90;;;0.03;100.00;97198.19;4989060;28;20029;-53
2023/02/06 07:04:11;;;;;;;33.30;16.55;;;5.20;69.90;;;-0.08;100.00;97190.63;4988670;28;20388;-54
2023/02/06 07:06:37;;;;;;;32.40;16.48;;;5.20;69.90;;;-0.01;100.00;97197.69;4999119;28;20449;-54
2023/02/06 07:09:09;;;;;;;31.33;16.58;;;5.20;69.90;;;-0.06;100.00;97210.47;4991172;28;20034;-54
2023/02/06 07:11:35;;;;;;;33.13;16.77;;;5.20;69.90;;;-0.06;100.00;97207.84;4996642;28;20497;-54
2023/02/06 07:14:02;;;;;;;30.77;16.05;;;5.20;69.90;;;0.03;100.00;97208.66;4986011;28;20069;-55
2023/02/06 07:16:28;;;;;;;34.08;17.13;;;5.20;69.90;;;0.09;100.00;97212.47;4982011;28;20426;-52
2023/02/06 07:18:57;;;;;;;32.65;16.48;;;5.20;69.90;;;0.08;100.00;97214.28;5010079;28;20055;-58
2023/02/06 07:21:25;;;;;;;33.92;16.55;;;5.30;70.00;;;0.04;100.00;97215.56;4987175;28;20025;-52
2023/02/06 07:23:51;;;;;;;32.28;16.50;;;5.20;69.90;;;0.05;100.00;97214.59;4988736;28;20038;-53
2023/02/06 07:26:20;;;;;;;34.58;17.63;;;5.30;69.90;;;0.06;100.00;97218.84;4990331;28;20025;-54
2023/02/06 07:28:48;;;;;;;38.85;17.67;;;5.30;69.90;;;0.11;100.00;97208.72;4990447;28;20169;-55
2023/02/06 07:31:15;;;;;;;34.10;16.98;;;5.30;69.90;;;0.06;100.00;97212.78;4987997;28;20124;-56
2023/02/06 07:33:50;;;;;;;35.90;16.75;;;5.30;69.90;;;0.11;100.00;97215.75;4998606;28;20049;-54
2023/02/06 07:36:19;;;;;;;32.30;16.20;;;5.30;69.90;;;0.17;100.00;97210.69;5006029;28;20014;-52
2023/02/06 07:38:47;;;;;;;35.28;16.52;;;5.30;70.00;;;0.20;100.00;97205.13;4988073;28;20437;-53
2023/02/06 07:41:13;;;;;;;35.60;16.20;;;5.30;70.00;;;0.11;100.00;97195.59;4962961;28;20457;-57
2023/02/06 07:43:39;;;;;;;35.13;15.90;;;5.40;70.00;;;0.13;100.00;97195.47;4975267;28;20864;-52
2023/02/06 07:46:05;;;;;;;31.77;15.15;;;5.30;69.80;;;0.13;100.00;97200.72;4990438;28;20029;-56
2023/02/06 07:48:31;;;;;;;34.53;15.50;;;5.40;69.90;;;0.14;100.00;97194.47;4971780;28;20034;-53
2023/02/06 07:51:08;;;;;;;30.38;14.88;;;5.40;69.90;;;0.15;100.00;97199.53;4967398;28;20397;-54
2023/02/06 07:53:36;;;;;;;26.58;14.18;;;5.40;69.80;;;0.14;100.00;97195.28;5002099;28;20129;-53
2023/02/06 07:56:11;;;;;;;29.27;14.85;;;5.40;69.80;;;0.14;100.00;97195.28;4988001;28;20018;-54
2023/02/06 07:58:37;;;;;;;31.85;14.75;;;5.40;69.70;;;0.12;100.00;97205.09;4983818;28;20125;-52
2023/02/06 08:01:05;;;;;;;27.15;14.05;;;5.50;69.70;;;0.15;100.00;97201.34;4984154;28;20048;-55
2023/02/06 08:03:32;;;;;;;26.15;13.35;;;5.50;69.70;;;0.26;100.00;97213.34;4983101;28;20670;-55
2023/02/06 08:06:13;;;;;;;42.83;16.73;;;5.50;69.60;;;0.30;100.00;97219.91;4987660;28;20022;-56
2023/02/06 08:08:41;;;;;;;41.13;16.58;;;5.60;69.60;;;0.33;100.00;97211.72;5010286;28;20017;-55
2023/02/06 08:11:15;;;;;;;25.60;13.18;;;5.60;69.50;;;0.25;100.00;97209.06;5020301;28;20395;-52
2023/02/06 08:13:43;;;;;;;30.55;14.02;;;5.60;69.40;;;0.22;100.00;97202.38;4968460;28;20499;-52
2023/02/06 08:16:24;;;;;;;25.65;12.98;;;5.60;69.30;;;0.26;100.00;97201.06;4998541;28;20365;-53
2023/02/06 08:18:51;;;;;;;29.50;14.10;;;5.70;69.30;;;0.23;100.00;97212.69;4990409;28;20449;-54
2023/02/06 08:21:25;;;;;;;25.88;13.48;;;5.70;69.20;;;0.30;100.00;97215.47;5007513;28;20109;-56
2023/02/06 08:23:59;;;;;;;27.55;13.27;;;5.70;69.90;;;0.28;100.00;97214.81;5001823;28;20025;-52
2023/02/06 08:29:04;;;;;;;26.80;12.68;;;5.80;69.00;;;0.33;100.00;97203.84;5003377;28;20052;-49
2023/02/06 08:31:42;;;;;;;26.98;13.75;;;5.80;69.00;;;0.27;100.00;97209.75;5009517;28;20071;-48
2023/02/06 08:34:13;;;;;;;25.13;11.73;;;5.80;68.90;;;0.30;100.00;97212.84;5029034;28;20028;-55
2023/02/06 08:36:39;;;;;;;25.27;12.32;;;5.90;68.80;;;0.31;100.00;97224.97;5033217;28;20447;-55
2023/02/06 08:39:06;;;;;;;24.10;11.85;;;5.90;68.70;;;0.23;100.00;97224.97;5048693;28;20043;-54
2023/02/06 08:41:39;;;;;;;21.77;11.45;;;5.90;68.60;;;0.32;100.00;97220.56;5032039;28;20012;-51
2023/02/06 08:44:15;;;;;;;21.67;11.95;;;5.90;68.50;;;0.28;100.00;97214.81;5043814;28;20056;-51
2023/02/06 08:46:51;;;;;;;22.13;11.73;;;5.90;68.40;;;0.39;100.00;97222.38;5018013;28;20031;-52
2023/02/06 08:49:21;;;;;;;24.45;12.05;;;5.90;68.40;;;0.35;100.00;97217.63;5016716;28;20089;-52
2023/02/06 08:51:50;;;;;;;23.05;11.82;;;5.90;69.20;;;0.43;100.00;97222.88;5049486;28;20028;-51
2023/02/06 08:54:22;;;;;;;21.05;10.98;;;5.90;68.40;;;0.40;99.84;97212.72;5005167;28;20025;-55
2023/02/06 08:56:59;;;;;;;24.48;11.32;;;6.00;68.30;;;0.31;99.96;97221.53;5040547;28;20421;-52
2023/02/06 08:59:28;;;;;;;21.10;11.05;;;6.00;68.20;;;0.35;99.55;97226.31;5036950;28;20039;-56
2023/02/06 09:01:57;;;;;;;23.77;10.65;;;5.90;68.10;;;0.36;99.32;97230.56;5033744;28;20032;-54
2023/02/06 09:04:30;;;;;;;23.65;11.25;;;6.00;68.00;;;0.37;99.24;97226.97;5040987;28;20047;-50
2023/02/06 09:07:02;;;;;;;22.52;10.57;;;6.00;67.90;;;0.45;98.72;97229.59;5036716;28;20025;-50
2023/02/06 09:09:33;;;;;;;19.42;10.60;;;6.10;67.90;;;0.53;98.29;97220.94;5043775;28;20054;-53
2023/02/06 09:12:06;;;;;;;20.08;10.35;;;6.10;67.80;;;0.48;98.89;97218.00;5030766;28;20442;-50
2023/02/06 09:14:35;;;;;;;21.77;10.88;;;6.10;67.80;;;0.55;98.86;97211.09;5028914;28;20101;-51
2023/02/06 09:17:04;;;;;;;18.48;9.70;;;6.20;67.80;;;0.70;98.92;97213.91;5031846;28;20024;-48
2023/02/06 09:19:30;;;;;;;20.48;11.20;;;6.20;67.80;;;0.60;97.86;97216.69;5034293;28;20032;-53
2023/02/06 09:21:56;;;;;;;21.55;11.25;;;6.30;67.70;;;0.71;98.65;97218.16;5032543;28;20501;-48
2023/02/06 09:24:22;;;;;;;19.27;10.35;;;6.30;67.60;;;0.76;97.00;97215.91;5046782;28;20496;-54
2023/02/06 09:26:53;;;;;;;20.02;10.15;;;6.40;67.50;;;0.79;96.78;97209.50;5018343;28;20120;-53
2023/02/06 09:29:27;;;;;;;18.48;10.23;;;6.40;67.30;;;0.88;97.10;97217.22;5029740;28;20599;-48
2023/02/06 09:31:54;;;;;;;20.73;10.60;;;6.50;67.20;;;0.77;96.10;97206.22;5018251;28;20196;-55
2023/02/06 09:34:27;;;;;;;20.20;11.05;;;6.60;67.20;;;0.93;96.03;97214.09;5049054;28;20184;-49
2023/02/06 09:37:01;;;;;;;20.20;10.20;;;6.70;66.90;;;0.91;93.67;97206.41;5048923;28;20569;-48
2023/02/06 09:39:27;;;;;;;21.02;10.00;;;6.80;66.70;;;0.97;93.88;97217.19;5010124;28;20025;-52
2023/02/06 09:42:11;;;;;;;18.33;9.63;;;6.80;66.40;;;0.84;94.06;97223.75;5043709;28;20031;-52
2023/02/06 09:44:50;;;;;;;16.92;10.05;;;6.90;66.10;;;0.92;94.04;97229.00;5029849;28;20024;-50
2023/02/06 09:47:33;;;;;;;19.48;10.30;;;7.00;65.90;;;1.02;93.37;97220.16;5016506;28;20036;-49
2023/02/06 09:50:39;;;;;;;21.90;10.40;;;7.10;65.80;;;0.98;92.08;97214.41;5032369;28;20546;-48
2023/02/06 09:53:55;;;;;;;19.60;9.60;;;7.20;65.50;;;1.20;91.70;97214.75;5040838;28;20040;-48
2023/02/06 09:57:33;;;;;;;16.60;9.00;;;7.30;65.20;;;1.24;90.21;97210.78;5020919;28;20029;-50
2023/02/06 10:00:14;;;;;;;18.45;9.80;;;7.50;65.10;;;1.17;89.92;97208.00;5002489;28;20047;-53
2023/02/06 10:03:39;;;;;;;19.90;10.27;;;7.60;65.30;;;1.31;89.69;97202.06;5043114;28;20051;-52
2023/02/06 10:06:39;;;;;;;16.73;9.88;;;7.70;64.30;;;1.45;90.89;97205.84;5033483;28;20432;-56
2023/02/06 10:09:34;;;;;;;18.33;10.05;;;7.80;64.30;;;1.17;90.40;97208.00;5026401;28;20013;-52
2023/02/06 10:12:25;;;;;;;17.42;9.65;;;7.80;64.00;;;1.10;89.00;97199.16;5031545;28;20028;-53
2023/02/06 10:15:19;;;;;;;18.55;9.77;;;7.90;63.70;;;1.25;89.98;97205.38;5013792;28;20025;-51
2023/02/06 10:18:11;;;;;;;17.58;10.48;;;7.90;63.50;;;1.32;90.10;97210.78;5028882;28;20039;-48
2023/02/06 10:20:50;;;;;;;18.05;9.40;;;7.80;63.40;;;1.14;90.91;97208.34;5038108;28;20373;-53
2023/02/06 10:23:48;;;;;;;18.92;9.73;;;7.80;63.30;;;1.06;88.76;97200.47;5048196;28;20492;-50
2023/02/06 10:26:23;;;;;;;15.63;8.48;;;7.80;63.00;;;1.08;88.39;97198.50;5037562;28;20387;-52
2023/02/06 10:28:59;;;;;;;19.30;9.80;;;7.90;62.90;;;1.11;88.80;97183.25;5020871;28;20071;-50
2023/02/06 10:32:11;;;;;;;15.98;9.20;;;7.90;62.70;;;1.30;88.19;97184.69;5014306;28;20032;-51
2023/02/06 10:35:08;;;;;;;21.17;9.70;;;8.00;62.60;;;1.30;88.02;97186.50;5017513;28;20040;-56
2023/02/06 10:38:38;;;;;;;16.55;9.45;;;8.00;62.50;;;1.52;87.02;97179.72;5046218;28;20119;-48
2023/02/06 10:42:04;;;;;;;14.73;9.07;;;8.00;62.40;;;1.62;86.78;97161.94;5030102;28;20029;-51
2023/02/06 10:45:23;;;;;;;17.48;8.77;;;8.00;62.50;;;1.77;85.96;97162.06;4986242;28;20029;-53
2023/02/06 10:48:30;;;;;;;16.77;9.77;;;8.00;62.40;;;1.76;85.13;97160.44;5041540;28;20469;-48
2023/02/06 10:51:34;;;;;;;15.68;8.27;;;8.10;62.50;;;1.56;85.33;97160.00;5025007;28;20020;-52